Terminal Aerodrome Forecast
Issued by NWS North Platte, NE

Home | Current Version | Previous Version | Text Only | Print | Product List | Glossary On
Versions: 1 2 3 4 5 6 7 8 9 10 11 12 13 14 15 16 17 18 19 20
000
FTUS43 KLBF 031700
TAFLBF
TAF
KLBF 031720Z 0318/0418 32010KT P6SM SCT150
     FM032000 01015G22KT P6SM SCT100
     FM040400 04012KT P6SM SCT050 BKN120 PROB30 0405/0407 5SM -TSRA
      BKN050CB
     FM041500 07014G20KT P6SM -SHRA BKN030=

USA.gov is the U.S. government's official web portal to all federal, state and local government web resources and services.